ADDS METAR Data INFO
IDs: Format: Raw Decoded Include TAF

Data at: 1918 UTC 19 Jul 2018

KGUY 191853Z AUTO 22010KT 10SM CLR 38/14 A2993 RMK AO2 SLP074 T03830139
KGUY 191753Z AUTO 22008KT 10SM CLR 36/15 A2995 RMK AO2 SLP084 T03610150 10361 20189 56007
KGUY 191653Z AUTO 19007KT 10SM CLR 34/17 A2996 RMK AO2 LTG DSNT W SLP087 T03440167
KGUY 191553Z AUTO 22006KT 10SM CLR 32/18 A2996 RMK AO2 SLP088 T03220178
KGUY 191453Z AUTO 23009KT 10SM CLR 29/18 A2997 RMK AO2 SLP093 T02890178 50002
KGUY 191353Z AUTO 24005KT 10SM CLR 24/19 A2998 RMK AO2 SLP097 T02440189
KGUY 191253Z AUTO 00000KT 10SM CLR 22/19 A2998 RMK AO2 SLP097 T02170189
KGUY 191153Z AUTO 00000KT 9SM CLR 19/17 A2997 RMK AO2 SLP094 T01940172 10250 20183 53001
KGUY 191053Z AUTO 00000KT 10SM CLR 21/18 A2996 RMK AO2 SLP091 T02060178
KGUY 190953Z AUTO 00000KT 10SM CLR 21/18 A2996 RMK AO2 SLP091 T02110183
KGUY 190853Z AUTO 15004KT 10SM CLR 23/18 A2996 RMK AO2 SLP090 T02280183 56009
KGUY 190753Z AUTO 17003KT 10SM CLR 23/19 A2997 RMK AO2 SLP094 T02280189
KGUY 190653Z AUTO 17004KT 10SM CLR 23/19 A2998 RMK AO2 SLP097 T02330194
KGUY 190553Z AUTO 12004KT 10SM CLR 25/20 A2999 RMK AO2 SLP101 T02500200 10356 20250 403610194 50010
KGUY 190453Z AUTO 11006KT 10SM CLR 27/19 A2999 RMK AO2 SLP102 T02670194
KGUY 190353Z AUTO 10008KT 10SM CLR 28/18 A2998 RMK AO2 SLP100 T02780183
KGUY 190253Z AUTO 09009KT 10SM CLR 29/19 A2996 RMK AO2 SLP090 T02940189 50002
KGUY 190153Z AUTO 08008KT 10SM CLR 32/18 A2996 RMK AO2 SLP091 T03170183
KGUY 190053Z AUTO 04009KT 10SM CLR 34/18 A2995 RMK AO2 SLP089 T03390178
KGUY 182353Z AUTO 04006KT 10SM CLR 36/16 A2995 RMK AO2 SLP088 T03560161 10361 20317 56011
KGUY 182253Z AUTO 06007KT 10SM CLR 36/17 A2995 RMK AO2 SLP088 T03610167
KGUY 182153Z AUTO 08007KT 10SM CLR 36/17 A2997 RMK AO2 SLP092 T03560172
KGUY 182053Z AUTO 08008KT 10SM CLR 35/18 A2998 RMK AO2 SLP099 T03500178 56016
KGUY 181953Z AUTO 09007KT 10SM CLR 34/18 A3000 RMK AO2 SLP104 T03390183
KGUY 181853Z AUTO 06007KT 10SM CLR 33/19 A3002 RMK AO2 SLP112 T03280189
KGUY 181753Z AUTO VRB04KT 10SM CLR 31/18 A3004 RMK AO2 SLP120 T03110183 10317 20194 56008
KGUY 181653Z AUTO VRB03KT 10SM CLR 30/19 A3004 RMK AO2 SLP121 T03000189
KGUY 181553Z AUTO VRB03KT 10SM CLR 27/19 A3005 RMK AO2 SLP127 T02720189
KGUY 181453Z AUTO 00000KT 10SM CLR 26/19 A3006 RMK AO2 SLP131 T02560189 51004
KGUY 181353Z AUTO 32006KT 10SM CLR 23/19 A3006 RMK AO2 SLP128 T02330194
KGUY 181253Z AUTO 28003KT 10SM CLR 21/19 A3006 RMK AO2 SLP130 T02110189
KGUY 181153Z AUTO 23004KT 10SM CLR 19/18 A3005 RMK AO2 SLP127 60009 70009 T01940178 10228 20194 55007
KGUY 181053Z AUTO 21004KT 10SM CLR 20/19 A3005 RMK AO2 SLP127 T02000189
KGUY 180953Z AUTO 15005KT 10SM CLR 21/19 A3005 RMK AO2 SLP123 T02110189
KGUY 180853Z AUTO 16004KT 10SM FEW048 21/19 A3007 RMK AO2 RAB01E42 SLP129 P0001 60009 T02110194 58012
KGUY 180753Z AUTO 11003KT 10SM BKN100 BKN120 22/20 A3009 RMK AO2 RAE41 SLP136 P0002 T02170200